Time;durP1;ratioP1;P1;durP2;ratioP2;P2;SDS_P1;SDS_P2;PMS_P1;PMS_P2;Temp;Humidity;BMP_temperature;BMP_pressure;BME280_temperature;BME280_humidity;BME280_pressure;Samples;Min_cycle;Max_cycle;Signal;HPM_P1;HPM_P2
2022/05/01 00:02:28;;;;;;;7.27;6.57;;;;;;;14.78;56.24;98314.34;8515901;27;20232;-74
2022/05/01 00:06:33;;;;;;;7.57;6.87;;;;;;;14.82;56.00;98313.25;8516782;27;20528;-74
2022/05/01 00:10:36;;;;;;;7.40;6.70;;;;;;;14.79;56.13;98312.56;8516766;27;20543;-75
2022/05/01 00:14:58;;;;;;;8.10;6.50;;;;;;;14.82;56.07;98307.19;8516701;27;20232;-75
2022/05/01 00:19:01;;;;;;;7.70;6.63;;;;;;;14.82;55.90;98309.81;8516648;27;20258;-75
2022/05/01 00:23:06;;;;;;;7.30;6.60;;;;;;;14.81;55.90;98308.09;8516086;27;20244;-75
2022/05/01 00:27:10;;;;;;;8.63;6.83;;;;;;;14.77;55.57;98315.25;8516266;27;20239;-75
2022/05/01 00:31:16;;;;;;;8.10;6.87;;;;;;;14.79;55.79;98312.56;8515918;27;20240;-75
2022/05/01 00:39:41;;;;;;;8.20;7.40;;;;;;;14.76;55.81;98313.59;8481740;27;20288;-75
2022/05/01 00:43:58;;;;;;;9.53;7.10;;;;;;;14.79;55.70;98313.44;8481354;28;20241;-75
2022/05/01 00:48:02;;;;;;;8.37;7.57;;;;;;;14.71;56.11;98310.38;8481530;28;20419;-75
2022/05/01 00:52:08;;;;;;;8.60;7.40;;;;;;;14.70;56.07;98298.28;8481562;28;20415;-75
2022/05/01 00:56:13;;;;;;;7.67;6.97;;;;;;;14.69;56.58;98309.63;8481682;28;20233;-75
2022/05/01 01:00:17;;;;;;;8.20;7.40;;;;;;;14.62;56.62;98306.53;8481347;28;20236;-75
2022/05/01 01:04:21;;;;;;;7.80;7.03;;;;;;;14.69;56.21;98303.59;8481126;28;20243;-75
2022/05/01 01:08:24;;;;;;;7.97;7.27;;;;;;;14.71;56.13;98304.34;8497655;27;20246;-74
2022/05/01 01:16:49;;;;;;;9.67;7.10;;;;;;;14.68;56.40;98294.06;8497604;27;20228;-75
2022/05/01 01:20:53;;;;;;;8.67;7.80;;;;;;;14.65;56.35;98289.88;8497819;27;20240;-75
2022/05/01 01:24:56;;;;;;;9.03;8.20;;;;;;;14.59;56.31;98298.88;8497515;27;20243;-75
2022/05/01 01:29:00;;;;;;;9.93;7.77;;;;;;;14.62;56.69;98296.13;8497854;27;20428;-75
2022/05/01 01:33:02;;;;;;;7.87;7.17;;;;;;;14.69;56.84;98293.16;8497643;27;20258;-75
2022/05/01 01:37:07;;;;;;;8.97;7.13;;;;;;;14.69;56.56;98294.00;8497639;27;20229;-75
2022/05/01 01:41:12;;;;;;;9.63;8.00;;;;;;;14.59;56.89;98287.63;8497696;27;20543;-75
2022/05/01 01:45:16;;;;;;;8.03;7.23;;;;;;;14.60;56.86;98287.53;8497276;27;20244;-75
2022/05/01 01:49:19;;;;;;;8.53;7.63;;;;;;;14.54;56.89;98285.22;8497548;27;20228;-75
2022/05/01 01:53:23;;;;;;;8.13;7.33;;;;;;;14.63;56.45;98287.34;8496996;27;20254;-73
2022/05/01 01:57:27;;;;;;;8.00;7.30;;;;;;;14.38;56.96;98287.84;8497396;27;20233;-75
2022/05/01 02:01:29;;;;;;;8.07;7.30;;;;;;;14.43;56.80;98282.38;8497343;27;20428;-75
2022/05/01 02:05:33;;;;;;;8.20;7.40;;;;;;;14.52;56.20;98286.25;8497144;27;20292;-75
2022/05/01 02:09:38;;;;;;;8.50;7.60;;;;;;;14.36;56.88;98284.47;8497116;27;20233;-75
2022/05/01 02:13:42;;;;;;;8.33;7.07;;;;;;;14.42;56.83;98281.53;8497144;27;21969;-76
2022/05/01 02:17:45;;;;;;;7.80;7.10;;;;;;;14.40;56.72;98279.94;8496993;27;20411;-75
2022/05/01 02:21:48;;;;;;;8.40;7.43;;;;;;;14.43;56.95;98280.63;8497116;27;20235;-75
2022/05/01 02:25:53;;;;;;;7.60;6.90;;;;;;;14.39;57.37;98279.13;8496938;27;20238;-75
2022/05/01 02:30:01;;;;;;;8.87;7.80;;;;;;;14.32;56.92;98272.56;8499202;27;20233;-75
2022/05/01 02:34:04;;;;;;;9.60;7.93;;;;;;;14.30;57.30;98274.41;8502674;27;20240;-75
2022/05/01 02:38:07;;;;;;;7.80;7.17;;;;;;;14.33;57.02;98274.22;8502693;27;20235;-75
2022/05/01 02:42:13;;;;;;;9.17;8.37;;;;;;;14.17;57.70;98273.41;8503070;27;20233;-75
2022/05/01 02:46:16;;;;;;;10.80;9.20;;;;;;;14.20;57.24;98270.59;8502771;27;20232;-75
2022/05/01 02:50:19;;;;;;;9.97;9.03;;;;;;;14.20;57.44;98271.47;8502511;27;20229;-75
2022/05/01 02:54:22;;;;;;;10.73;9.73;;;;;;;14.23;57.15;98273.88;8502157;27;20538;-74
2022/05/01 02:58:27;;;;;;;12.20;11.00;;;;;;;14.08;57.81;98274.72;8502644;27;20418;-74
2022/05/01 03:02:30;;;;;;;12.87;10.70;;;;;;;14.18;57.34;98275.06;8502544;27;20228;-75
2022/05/01 03:06:34;;;;;;;13.57;12.30;;;;;;;14.12;57.63;98275.41;8501870;27;20232;-75
2022/05/01 03:10:37;;;;;;;12.97;11.77;;;;;;;14.01;57.80;98269.00;8501946;27;20232;-75
2022/05/01 03:14:41;;;;;;;12.87;11.30;;;;;;;14.00;57.79;98263.88;8501743;27;20232;-75
2022/05/01 03:23:05;;;;;;;13.17;11.97;;;;;;;13.89;57.99;98272.25;8501760;27;20236;-75
2022/05/01 03:27:09;;;;;;;12.10;10.90;;;;;;;13.84;57.97;98267.31;8501340;27;20303;-75
2022/05/01 03:31:13;;;;;;;13.07;11.87;;;;;;;13.75;57.63;98273.00;8501276;27;20229;-75
2022/05/01 03:35:16;;;;;;;12.17;10.97;;;;;;;13.83;57.54;98260.41;8501175;27;20539;-75
2022/05/01 03:39:19;;;;;;;11.80;10.70;;;;;;;13.87;57.36;98263.69;8500685;27;20233;-75
2022/05/01 03:43:22;;;;;;;11.10;10.07;;;;;;;13.78;57.63;98264.16;8500377;27;20229;-74
2022/05/01 03:47:26;;;;;;;11.97;10.97;;;;;;;13.68;57.80;98262.03;8500426;27;20233;-75
2022/05/01 03:51:31;;;;;;;11.83;10.63;;;;;;;13.72;57.53;98278.34;8500319;27;20236;-74
2022/05/01 03:55:36;;;;;;;15.03;10.17;;;;;;;13.71;57.47;98279.28;8500450;27;20252;-75
2022/05/01 03:59:39;;;;;;;11.10;10.00;;;;;;;13.67;57.39;98278.59;8500233;27;20292;-75
2022/05/01 04:03:44;;;;;;;10.90;9.83;;;;;;;13.67;57.40;98286.41;8500191;27;20243;-75
2022/05/01 04:07:47;;;;;;;12.30;11.10;;;;;;;13.67;57.46;98285.56;8499919;27;20318;-75
2022/05/01 04:11:53;;;;;;;12.27;11.17;;;;;;;13.64;57.57;98289.16;8499929;27;20237;-75
2022/05/01 04:15:56;;;;;;;12.57;11.27;;;;;;;13.60;57.54;98289.41;8499701;27;20232;-75
2022/05/01 04:20:01;;;;;;;13.47;12.10;;;;;;;13.52;57.77;98289.78;8499736;27;20420;-75
2022/05/01 04:24:04;;;;;;;14.30;13.00;;;;;;;13.55;57.73;98289.63;8499453;27;20240;-75
2022/05/01 04:28:08;;;;;;;14.83;13.33;;;;;;;13.48;57.65;98291.72;8499510;27;20550;-75
2022/05/01 04:32:14;;;;;;;15.27;13.77;;;;;;;13.53;57.61;98294.06;8499353;27;20239;-75
2022/05/01 04:36:18;;;;;;;16.17;14.63;;;;;;;13.44;57.93;98303.19;8499254;27;20232;-75
2022/05/01 04:40:21;;;;;;;14.60;13.30;;;;;;;13.53;57.55;98296.66;8499139;27;20239;-75
2022/05/01 04:44:24;;;;;;;16.70;15.20;;;;;;;13.47;57.93;98297.81;8498322;27;20221;-74
2022/05/01 04:48:27;;;;;;;16.57;15.00;;;;;;;13.50;58.28;98294.25;8498814;27;20236;-74
2022/05/01 04:52:32;;;;;;;16.43;15.03;;;;;;;13.54;58.00;98306.16;8498093;27;20249;-74
2022/05/01 05:00:52;;;;;;;18.17;16.43;;;;;;;13.52;58.60;98320.16;8480928;27;20243;-75
2022/05/01 05:04:55;;;;;;;17.90;16.20;;;;;;;13.63;58.37;98315.25;8498344;27;20610;-75
2022/05/01 05:13:22;;;;;;;17.40;15.77;;;;;;;13.79;58.10;98318.75;8497928;27;20232;-75
2022/05/01 05:17:29;;;;;;;19.00;17.03;;;;;;;13.79;58.16;98313.53;8480642;27;20228;-75
2022/05/01 05:21:31;;;;;;;17.27;15.67;;;;;;;13.86;58.10;98314.91;8480932;28;20236;-75
2022/05/01 05:25:36;;;;;;;19.87;16.30;;;;;;;13.94;57.88;98319.72;8480874;28;20243;-75
2022/05/01 05:29:39;;;;;;;17.43;15.77;;;;;;;13.88;58.07;98320.88;8480767;28;20514;-75
2022/05/01 05:33:42;;;;;;;15.73;14.23;;;;;;;14.01;57.53;98323.69;8480813;28;20438;-75
2022/05/01 05:37:45;;;;;;;15.83;14.33;;;;;;;14.09;57.33;98331.09;8480699;28;20237;-75
2022/05/01 05:41:49;;;;;;;17.13;15.37;;;;;;;14.04;58.35;98330.50;8480499;28;20253;-75
2022/05/01 05:45:52;;;;;;;15.93;13.83;;;;;;;14.12;57.28;98341.34;8480345;28;20419;-75
2022/05/01 05:49:56;;;;;;;16.13;14.53;;;;;;;14.17;57.74;98347.16;8480595;28;20409;-75
2022/05/01 05:54:02;;;;;;;15.73;14.23;;;;;;;14.14;57.78;98344.69;8480557;28;20259;-75
2022/05/01 05:58:07;;;;;;;19.20;15.13;;;;;;;13.67;58.95;98353.22;8480472;28;20566;-75
2022/05/01 06:02:10;;;;;;;18.77;15.70;;;;;;;13.89;58.46;98353.78;8480317;28;20230;-75
2022/05/01 06:06:14;;;;;;;15.37;13.87;;;;;;;14.10;57.72;98343.19;8486502;27;20237;-75
2022/05/01 06:10:17;;;;;;;18.50;16.73;;;;;;;13.57;59.99;98342.41;8486677;28;20256;-75
2022/05/01 06:14:21;;;;;;;18.33;16.57;;;;;;;13.85;59.41;98343.63;8486549;28;20233;-76
2022/05/01 06:18:24;;;;;;;18.43;16.63;;;;;;;14.07;58.29;98353.78;8503293;27;20446;-75
2022/05/01 06:22:27;;;;;;;18.60;16.63;;;;;;;14.18;57.84;98354.03;8503480;27;20236;-75
2022/05/01 06:26:32;;;;;;;18.07;16.27;;;;;;;14.17;57.87;98360.19;8503262;27;20426;-75
2022/05/01 06:30:38;;;;;;;18.37;16.30;;;;;;;14.01;58.27;98356.69;8503297;27;20247;-75
2022/05/01 06:34:42;;;;;;;18.17;16.27;;;;;;;14.05;58.31;98359.06;8502929;27;20234;-75
2022/05/01 06:38:45;;;;;;;19.07;17.30;;;;;;;14.19;57.86;98358.31;8502853;27;20224;-76
2022/05/01 06:42:49;;;;;;;20.73;18.10;;;;;;;13.86;58.25;98359.19;8502667;27;20293;-75
2022/05/01 06:46:53;;;;;;;19.23;17.33;;;;;;;14.21;57.92;98359.09;8502529;27;20236;-75
2022/05/01 06:50:56;;;;;;;19.90;18.00;;;;;;;14.33;57.84;98347.16;8502609;27;20236;-75
2022/05/01 06:55:00;;;;;;;19.97;17.83;;;;;;;13.91;58.84;98360.69;8502388;27;20236;-75
2022/05/01 06:59:03;;;;;;;17.83;16.03;;;;;;;14.07;57.82;98370.25;8502249;27;20229;-75
2022/05/01 07:03:08;;;;;;;18.97;17.07;;;;;;;14.13;57.65;98363.03;8502300;27;20232;-75
2022/05/01 07:07:12;;;;;;;19.17;17.27;;;;;;;14.18;57.73;98368.81;8501975;27;20233;-75
2022/05/01 07:11:15;;;;;;;18.53;16.50;;;;;;;14.20;57.85;98372.19;8501936;27;20243;-75
2022/05/01 07:15:18;;;;;;;18.67;16.77;;;;;;;14.32;57.76;98375.91;8501065;27;20296;-75
2022/05/01 07:19:22;;;;;;;17.27;15.63;;;;;;;14.45;56.70;98380.41;8501641;27;20228;-76
2022/05/01 07:23:26;;;;;;;19.63;17.73;;;;;;;14.53;56.50;98371.34;8501237;27;20235;-75
2022/05/01 07:27:29;;;;;;;19.13;16.70;;;;;;;14.62;56.41;98368.22;8501160;27;20236;-75
2022/05/01 07:31:32;;;;;;;19.40;17.60;;;;;;;14.57;56.63;98372.88;8501122;27;20240;-75
2022/05/01 07:35:37;;;;;;;19.37;17.47;;;;;;;14.53;57.13;98372.16;8501076;27;20292;-75
2022/05/01 07:39:40;;;;;;;18.90;17.10;;;;;;;14.72;56.56;98372.03;8500955;27;20225;-75
2022/05/01 07:43:43;;;;;;;19.57;17.47;;;;;;;15.08;55.77;98373.53;8500679;27;20228;-75
2022/05/01 07:47:47;;;;;;;20.30;17.23;;;;;;;15.21;55.19;98368.44;8500441;27;20240;-75
2022/05/01 07:51:51;;;;;;;18.37;16.47;;;;;;;15.23;55.28;98372.66;8500350;27;20233;-76
2022/05/01 07:55:56;;;;;;;18.50;16.67;;;;;;;15.37;54.97;98366.66;8500652;27;20236;-75
2022/05/01 07:59:59;;;;;;;18.70;16.80;;;;;;;15.45;55.16;98368.81;8500447;27;20531;-75
2022/05/01 08:08:23;;;;;;;19.70;17.80;;;;;;;15.57;54.59;98365.50;8499543;27;20236;-75
2022/05/01 08:12:26;;;;;;;18.67;16.97;;;;;;;15.94;54.05;98362.53;8499921;27;20233;-75
2022/05/01 08:16:30;;;;;;;18.17;16.47;;;;;;;16.00;53.33;98369.97;8499994;27;20224;-75
2022/05/01 08:25:03;;;;;;;16.47;14.90;;;;;;;17.70;49.67;98357.50;8472048;28;20233;-75
2022/05/01 08:29:05;;;;;;;17.47;15.20;;;;;;;18.58;47.70;98357.56;8481475;28;20237;-76
2022/05/01 08:33:09;;;;;;;15.93;14.43;;;;;;;18.96;45.42;98351.38;8482596;27;20236;-75
2022/05/01 08:37:12;;;;;;;17.30;15.50;;;;;;;18.49;47.57;98356.44;8482266;28;20272;-75
2022/05/01 08:41:16;;;;;;;16.50;14.90;;;;;;;17.83;48.67;98368.81;8482367;28;20240;-75
2022/05/01 08:45:24;;;;;;;15.73;14.07;;;;;;;17.68;48.79;98368.06;8481947;28;20582;-75
2022/05/01 08:49:27;;;;;;;19.40;17.43;;;;;;;17.25;50.06;98373.53;8498486;27;20259;-75
2022/05/01 08:53:31;;;;;;;16.67;15.07;;;;;;;17.70;49.61;98375.81;8498770;27;20236;-75
2022/05/01 08:57:35;;;;;;;16.93;15.13;;;;;;;17.80;49.29;98379.53;8498489;27;20237;-75
2022/05/01 09:01:39;;;;;;;16.03;14.33;;;;;;;17.79;49.51;98372.59;8498617;27;20235;-76
2022/05/01 09:05:43;;;;;;;17.57;15.87;;;;;;;17.62;48.74;98370.28;8498704;27;20224;-76
2022/05/01 09:09:50;;;;;;;17.73;15.60;;;;;;;17.73;48.50;98365.16;8497809;27;20235;-75
2022/05/01 09:13:57;;;;;;;15.40;13.90;;;;;;;18.54;47.72;98361.34;8498074;27;20236;-75
2022/05/01 09:18:02;;;;;;;15.67;14.17;;;;;;;18.10;46.91;98362.69;8498531;27;20539;-76
2022/05/01 09:22:05;;;;;;;15.93;14.50;;;;;;;18.34;46.76;98358.34;8498274;27;20423;-75
2022/05/01 09:26:10;;;;;;;14.90;13.40;;;;;;;18.34;46.77;98365.38;8497943;27;20232;-76
2022/05/01 09:30:18;;;;;;;17.27;15.67;;;;;;;18.85;44.49;98360.06;8497958;27;20421;-76
2022/05/01 09:34:23;;;;;;;16.83;15.27;;;;;;;19.90;44.45;98358.41;8497703;27;20244;-76
2022/05/01 09:38:27;;;;;;;17.13;15.10;;;;;;;19.67;44.28;98356.69;8499075;27;20224;-75
2022/05/01 09:42:34;;;;;;;16.87;13.80;;;;;;;19.32;45.69;98362.75;8504789;27;20236;-75
2022/05/01 09:46:39;;;;;;;14.50;13.10;;;;;;;18.97;46.26;98358.31;8504360;27;20438;-76
2022/05/01 09:50:44;;;;;;;14.00;12.60;;;;;;;18.82;45.93;98355.00;8504691;27;20244;-75
2022/05/01 09:55:03;;;;;;;16.57;14.87;;;;;;;18.69;45.32;98359.44;8504567;27;20240;-76
2022/05/01 09:59:06;;;;;;;16.43;14.17;;;;;;;19.18;44.97;98352.47;8504243;27;20248;-76
2022/05/01 10:03:25;;;;;;;15.70;14.00;;;;;;;19.22;44.41;98356.53;8504176;27;20232;-76
2022/05/01 10:07:29;;;;;;;14.70;13.40;;;;;;;19.43;44.29;98357.56;8503611;27;20314;-75
2022/05/01 10:11:32;;;;;;;15.00;13.50;;;;;;;19.44;44.68;98356.63;8503880;27;20237;-75
2022/05/01 10:15:35;;;;;;;16.37;14.57;;;;;;;19.04;45.26;98356.06;8503834;27;20253;-76
2022/05/01 10:19:40;;;;;;;14.50;13.10;;;;;;;19.16;44.84;98349.09;8503355;27;20237;-76
2022/05/01 10:23:44;;;;;;;15.07;13.57;;;;;;;18.95;46.16;98349.72;8503553;27;20229;-76
2022/05/01 10:27:53;;;;;;;15.03;13.53;;;;;;;18.73;45.75;98337.28;8503438;27;20536;-76
2022/05/01 10:32:22;;;;;;;12.90;11.70;;;;;;;19.75;42.75;98337.75;8503188;27;20240;-76
2022/05/01 10:37:03;;;;;;;13.17;11.73;;;;;;;21.25;40.86;98332.91;8502792;27;20520;-75
2022/05/01 10:41:07;;;;;;;12.10;10.70;;;;;;;20.60;41.46;98326.75;8503206;27;20416;-75
2022/05/01 10:45:50;;;;;;;12.73;11.53;;;;;;;19.97;40.53;98326.41;8502775;27;20236;-76
2022/05/01 10:50:06;;;;;;;12.77;11.47;;;;;;;20.20;40.07;98324.63;8495216;27;20245;-75
2022/05/01 10:54:35;;;;;;;13.33;12.03;;;;;;;20.56;41.03;98317.41;8502677;27;20240;-76
2022/05/01 10:58:39;;;;;;;11.87;10.67;;;;;;;20.37;40.98;98313.63;8485129;28;20229;-76
2022/05/01 11:02:44;;;;;;;12.27;11.03;;;;;;;20.19;40.92;98317.69;8484850;27;20243;-75
2022/05/01 11:06:51;;;;;;;12.37;10.47;;;;;;;20.99;39.22;98304.28;8484969;28;20573;-75
2022/05/01 11:10:59;;;;;;;13.77;12.37;;;;;;;20.67;38.46;98299.00;8484934;27;20572;-76
2022/05/01 11:15:08;;;;;;;12.93;11.50;;;;;;;20.82;40.86;98299.56;8485130;28;20226;-76
2022/05/01 11:19:11;;;;;;;13.80;12.50;;;;;;;20.29;41.31;98290.53;8484804;28;20244;-76
2022/05/01 11:23:31;;;;;;;13.07;11.77;;;;;;;20.28;41.92;98293.31;8484631;27;20457;-76
2022/05/01 11:27:49;;;;;;;10.93;9.57;;;;;;;20.96;40.15;98287.91;8501218;27;20434;-75
2022/05/01 11:31:52;;;;;;;11.97;10.77;;;;;;;21.78;39.73;98282.81;8501466;27;20235;-76
2022/05/01 11:36:04;;;;;;;15.93;11.43;;;;;;;22.79;38.09;98275.78;8501273;27;20432;-76
2022/05/01 11:40:26;;;;;;;11.77;10.57;;;;;;;21.94;37.90;98276.22;8501073;27;20279;-76
2022/05/01 11:44:46;;;;;;;9.60;8.67;;;;;;;21.61;37.61;98278.97;8500518;27;20402;-76
2022/05/01 11:48:49;;;;;;;10.10;9.10;;;;;;;21.42;37.31;98277.03;8500381;27;20547;-75
2022/05/01 11:52:54;;;;;;;11.27;10.07;;;;;;;20.99;37.04;98261.34;8500636;27;20236;-76
2022/05/01 12:05:45;;;;;;;10.17;9.17;;;;;;;20.59;39.53;98264.56;8500056;27;20238;-76
2022/05/01 12:09:51;;;;;;;10.67;9.57;;;;;;;20.55;39.43;98263.13;8499915;27;20248;-76
2022/05/01 12:14:07;;;;;;;11.27;8.67;;;;;;;20.48;38.53;98262.78;8499812;27;20537;-75
2022/05/01 12:18:11;;;;;;;9.03;8.00;;;;;;;20.47;38.49;98269.84;8500066;27;20238;-76
2022/05/01 12:22:15;;;;;;;8.47;7.67;;;;;;;20.56;38.39;98260.38;8499790;27;20235;-76
2022/05/01 12:26:18;;;;;;;10.20;8.60;;;;;;;20.47;38.15;98256.69;8499570;27;20238;-75
2022/05/01 12:30:22;;;;;;;9.77;8.77;;;;;;;20.17;39.23;98248.63;8499468;27;20239;-76
2022/05/01 12:34:27;;;;;;;12.57;9.17;;;;;;;19.96;37.49;98246.72;8481551;27;20245;-75
2022/05/01 12:38:31;;;;;;;10.47;8.20;;;;;;;19.98;38.07;98246.59;8482320;28;20236;-75
2022/05/01 12:47:05;;;;;;;8.47;7.57;;;;;;;20.05;38.21;98245.19;8481905;28;20230;-76
2022/05/01 12:51:09;;;;;;;8.70;7.73;;;;;;;20.03;38.99;98237.41;8481515;28;20236;-76
2022/05/01 12:55:17;;;;;;;9.70;8.17;;;;;;;19.88;39.07;98239.44;8481617;28;20236;-77
2022/05/01 12:59:28;;;;;;;10.27;9.17;;;;;;;19.36;38.15;98232.09;8481486;28;20538;-76
2022/05/01 13:03:36;;;;;;;9.73;8.67;;;;;;;19.63;38.17;98234.38;8515197;27;20224;-76
2022/05/01 13:07:42;;;;;;;9.40;7.57;;;;;;;19.42;38.81;98226.34;8515440;27;20245;-76
2022/05/01 13:11:59;;;;;;;8.53;7.50;;;;;;;19.45;38.09;98221.72;8515240;27;20288;-76
2022/05/01 13:16:05;;;;;;;8.43;7.20;;;;;;;19.37;38.88;98220.63;8514829;27;20298;-76
2022/05/01 13:20:08;;;;;;;8.93;8.03;;;;;;;19.45;37.88;98213.00;8515371;27;20237;-77
2022/05/01 13:24:15;;;;;;;9.40;8.50;;;;;;;19.43;39.46;98217.53;8515150;27;20238;-76
2022/05/01 13:28:18;;;;;;;11.90;8.77;;;;;;;19.16;40.96;98218.69;8514961;27;20240;-76
2022/05/01 13:32:20;;;;;;;10.07;8.97;;;;;;;18.99;42.36;98217.31;8515004;27;20233;-76
2022/05/01 13:36:23;;;;;;;9.57;8.67;;;;;;;19.05;42.32;98216.03;8514143;27;20290;-76
2022/05/01 13:44:48;;;;;;;16.57;8.80;;;;;;;19.00;41.26;98212.91;8514634;27;20232;-76
2022/05/01 13:48:52;;;;;;;9.10;7.73;;;;;;;19.09;41.03;98201.72;8514454;27;20236;-76
2022/05/01 13:52:55;;;;;;;9.83;8.83;;;;;;;19.00;41.39;98210.28;8514370;27;20233;-76
2022/05/01 13:56:59;;;;;;;8.23;6.60;;;;;;;19.11;46.39;98210.31;8513277;27;20239;-74
2022/05/01 14:01:03;;;;;;;8.13;2.90;;;;;;;19.35;49.61;98210.25;8514552;27;20243;-74
2022/05/01 14:05:08;;;;;;;6.67;6.07;;;;;;;19.46;48.79;98201.56;8481531;27;20233;-73
2022/05/01 14:09:11;;;;;;;12.63;6.40;;;;;;;19.29;42.73;98198.41;8511306;27;20237;-74
2022/05/01 14:13:16;;;;;;;17.37;6.47;;;;;;;19.52;46.56;98199.28;8514270;27;20547;-78
2022/05/01 14:17:19;;;;;;;17.07;6.70;;;;;;;19.56;45.37;98191.16;8514336;27;20429;-78
2022/05/01 14:21:24;;;;;;;15.88;7.70;;;;;;;19.92;41.92;98190.94;8511934;27;20524;-76
2022/05/01 14:25:27;;;;;;;12.10;8.13;;;;;;;19.54;43.79;98188.66;8517301;27;20540;-77
2022/05/01 14:29:32;;;;;;;11.63;8.30;;;;;;;19.54;42.86;98181.59;8520395;27;20436;-76
2022/05/01 14:33:38;;;;;;;17.40;8.03;;;;;;;19.65;42.55;98175.53;8520160;27;20224;-76
2022/05/01 14:37:46;;;;;;;17.53;7.90;;;;;;;19.67;41.77;98170.97;8519980;27;21846;-77
2022/05/01 14:41:51;;;;;;;9.93;7.47;;;;;;;19.63;41.10;98173.94;8519451;27;20235;-77
2022/05/01 14:45:58;;;;;;;10.87;7.27;;;;;;;19.62;40.93;98170.50;8519652;27;20232;-77
2022/05/01 14:50:02;;;;;;;12.50;7.30;;;;;;;19.49;40.89;98170.63;8519360;27;20229;-77
2022/05/01 14:54:06;;;;;;;11.07;6.70;;;;;;;19.54;41.15;98165.00;8519545;27;20234;-77
2022/05/01 15:06:17;;;;;;;12.03;7.57;;;;;;;19.32;40.57;98158.81;8519537;27;20236;-77
2022/05/01 15:06:57;;;;;;;9.77;7.10;;;;;;;19.31;41.70;98151.88;8519262;27;20252;-76
2022/05/01 15:11:01;;;;;;;9.77;6.53;;;;;;;19.43;42.67;98151.88;8518950;27;20237;-77
2022/05/01 15:15:04;;;;;;;11.40;7.57;;;;;;;19.52;42.60;98157.25;8518943;27;20236;-77
2022/05/01 15:19:17;;;;;;;14.43;7.30;;;;;;;19.53;42.68;98155.44;8519021;27;20350;-76
2022/05/01 15:23:28;;;;;;;11.63;7.53;;;;;;;19.53;42.00;98158.94;8518553;27;20297;-75
2022/05/01 15:27:46;;;;;;;13.97;6.10;;;;;;;19.57;42.20;98153.44;8518124;27;20227;-75
2022/05/01 15:31:49;;;;;;;8.27;6.90;;;;;;;19.48;40.32;98147.13;8518298;27;20256;-75
2022/05/01 15:35:57;;;;;;;8.80;7.33;;;;;;;19.28;40.65;98152.09;8517719;27;20235;-85
2022/05/01 15:40:05;;;;;;;8.23;6.93;;;;;;;19.06;41.19;98154.72;8518066;27;20236;-75
2022/05/01 15:44:09;;;;;;;8.10;7.30;;;;;;;19.10;40.85;98164.03;8518148;27;20391;-76
2022/05/01 15:48:12;;;;;;;8.17;7.30;;;;;;;18.99;41.80;98162.22;8517927;27;20229;-76
2022/05/01 15:56:39;;;;;;;8.10;7.17;;;;;;;18.84;41.61;98156.31;8483422;27;20226;-75
2022/05/01 16:00:42;;;;;;;8.93;8.03;;;;;;;18.71;41.99;98150.28;8483440;28;20241;-75
2022/05/01 16:04:45;;;;;;;8.23;7.53;;;;;;;18.60;42.53;98153.75;8483050;27;20229;-75
2022/05/01 16:08:51;;;;;;;7.47;6.77;;;;;;;18.69;42.19;98144.34;8483071;28;20236;-75
2022/05/01 16:12:57;;;;;;;7.50;6.57;;;;;;;18.65;42.41;98143.72;8483089;28;20239;-75
2022/05/01 16:17:05;;;;;;;9.97;7.27;;;;;;;18.61;42.60;98146.69;8482725;28;20233;-75
2022/05/01 16:21:21;;;;;;;8.50;6.90;;;;;;;18.62;42.92;98136.09;8482782;28;20240;-75
2022/05/01 16:25:27;;;;;;;8.87;6.87;;;;;;;18.70;42.93;98132.91;8490572;27;20225;-75
2022/05/01 16:29:41;;;;;;;12.00;7.03;;;;;;;18.61;43.62;98138.84;8482350;28;20240;-76
2022/05/01 16:33:50;;;;;;;10.83;7.03;;;;;;;18.71;44.27;98142.44;8482246;27;20574;-76
2022/05/01 16:37:53;;;;;;;8.00;6.63;;;;;;;18.64;44.23;98135.97;8482329;28;20236;-76
2022/05/01 16:41:59;;;;;;;8.37;6.70;;;;;;;18.50;44.17;98143.06;8503896;27;20229;-74
2022/05/01 16:46:03;;;;;;;11.13;8.03;;;;;;;18.48;44.54;98133.66;8501890;27;20555;-76
2022/05/01 16:50:08;;;;;;;9.33;7.47;;;;;;;18.54;44.86;98131.44;8498134;27;20241;-75
2022/05/01 16:54:12;;;;;;;8.67;6.87;;;;;;;18.55;44.91;98130.47;8498826;27;20297;-76
2022/05/01 16:58:22;;;;;;;10.23;6.93;;;;;;;18.55;45.07;98125.22;8498529;27;20238;-76
2022/05/01 17:02:34;;;;;;;11.93;6.97;;;;;;;18.64;45.08;98128.94;8481533;27;20225;-75
2022/05/01 17:06:43;;;;;;;11.23;6.83;;;;;;;18.58;45.64;98128.56;8489822;27;20234;-76
2022/05/01 17:10:52;;;;;;;9.07;7.10;;;;;;;18.43;45.73;98127.91;8489458;27;20233;-77
2022/05/01 17:15:06;;;;;;;9.77;7.10;;;;;;;18.32;46.70;98132.16;8489746;27;20233;-78
2022/05/01 17:19:11;;;;;;;12.00;8.17;;;;;;;18.27;46.48;98130.81;8489757;27;20405;-76
2022/05/01 17:23:19;;;;;;;9.73;7.53;;;;;;;18.05;45.75;98131.53;8489451;27;20233;-77
2022/05/01 17:27:26;;;;;;;10.23;7.10;;;;;;;18.09;45.69;98133.03;8489180;27;20531;-76
2022/05/01 17:31:32;;;;;;;9.83;7.03;;;;;;;18.15;45.82;98129.94;8489480;27;20233;-76
2022/05/01 17:35:35;;;;;;;8.93;6.63;;;;;;;18.19;45.03;98125.31;8489629;27;20235;-76
2022/05/01 17:39:44;;;;;;;9.23;6.80;;;;;;;18.12;45.50;98127.53;8488863;27;20415;-79
2022/05/01 17:43:50;;;;;;;11.10;6.67;;;;;;;18.13;45.14;98134.47;8489201;27;20228;-79
2022/05/01 17:47:58;;;;;;;8.30;6.47;;;;;;;18.07;44.95;98127.88;8497878;27;20488;-77
2022/05/01 17:52:04;;;;;;;7.40;5.90;;;;;;;18.06;44.83;98128.81;8497477;27;20328;-76
2022/05/01 17:56:07;;;;;;;8.07;5.80;;;;;;;18.00;45.28;98137.13;8497504;27;20452;-74
2022/05/01 18:00:12;;;;;;;7.33;5.63;;;;;;;17.87;44.85;98141.56;8500577;27;20539;-73
2022/05/01 18:13:27;;;;;;;8.40;5.40;;;;;;;17.76;44.96;98150.16;8503552;27;20228;-77
2022/05/01 18:17:39;;;;;;;10.00;5.57;;;;;;;17.80;45.18;98149.00;8496067;27;20547;-74
2022/05/01 18:21:53;;;;;;;9.93;7.00;;;;;;;17.70;45.55;98146.19;8503566;27;20235;-75
2022/05/01 18:26:01;;;;;;;10.47;6.50;;;;;;;17.57;45.57;98154.09;8497472;27;20240;-76
2022/05/01 18:30:13;;;;;;;8.50;6.13;;;;;;;17.58;45.72;98150.50;8486325;28;20241;-75
2022/05/01 18:34:25;;;;;;;9.37;6.07;;;;;;;17.58;45.72;98154.91;8486178;27;20233;-75
2022/05/01 18:38:33;;;;;;;10.20;5.90;;;;;;;17.55;45.59;98152.50;8451890;28;20406;-74
2022/05/01 18:42:37;;;;;;;10.50;6.13;;;;;;;17.46;46.12;98151.38;8452131;28;20293;-75
2022/05/01 18:46:41;;;;;;;11.67;6.97;;;;;;;17.41;45.91;98148.22;8474844;28;20232;-75
2022/05/01 18:50:45;;;;;;;8.57;5.97;;;;;;;17.36;45.59;98159.03;8506966;27;20228;-75
2022/05/01 18:54:52;;;;;;;7.90;5.80;;;;;;;17.42;45.67;98159.53;8491068;27;20235;-74
2022/05/01 18:58:54;;;;;;;9.87;6.27;;;;;;;17.34;45.79;98163.53;8484943;27;20233;-75
2022/05/01 19:02:57;;;;;;;7.70;6.20;;;;;;;17.29;46.29;98170.88;8485264;28;20415;-75
2022/05/01 19:07:07;;;;;;;8.77;6.33;;;;;;;17.27;46.03;98172.75;8456445;28;20469;-74
2022/05/01 19:11:22;;;;;;;7.47;6.60;;;;;;;17.23;46.35;98183.50;8449757;28;20238;-74
2022/05/01 19:15:31;;;;;;;9.57;6.27;;;;;;;17.16;46.78;98173.47;8518565;27;20527;-75
2022/05/01 19:19:52;;;;;;;9.67;6.23;;;;;;;17.14;47.75;98187.63;8518642;27;20252;-75
2022/05/01 19:28:44;;;;;;;8.83;6.47;;;;;;;16.99;47.69;98184.25;8496522;27;20229;-75
2022/05/01 19:33:09;;;;;;;9.43;6.80;;;;;;;16.94;48.65;98188.94;8518157;27;20233;-76
2022/05/01 19:37:23;;;;;;;8.30;7.50;;;;;;;16.87;48.53;98196.38;8517957;27;20237;-74
2022/05/01 19:41:33;;;;;;;9.93;7.67;;;;;;;16.85;47.97;98192.16;8508279;27;20255;-75
2022/05/01 19:45:45;;;;;;;10.63;7.50;;;;;;;16.77;48.48;98201.34;8483539;28;20238;-75
2022/05/01 19:54:25;;;;;;;8.70;6.37;;;;;;;16.66;48.64;98200.34;8499887;27;20520;-74
2022/05/01 19:58:30;;;;;;;9.73;6.80;;;;;;;16.65;49.09;98203.91;8500205;27;20229;-75
2022/05/01 20:02:34;;;;;;;9.77;6.53;;;;;;;16.70;49.27;98201.84;8491101;27;20237;-75
2022/05/01 20:06:39;;;;;;;9.00;7.00;;;;;;;16.66;49.08;98203.81;8507786;27;20225;-75
2022/05/01 20:10:42;;;;;;;9.43;6.80;;;;;;;16.61;49.17;98191.03;8480391;28;20278;-75
2022/05/01 20:14:45;;;;;;;8.83;6.93;;;;;;;16.61;49.58;98198.03;8498949;27;20236;-76
2022/05/01 20:18:52;;;;;;;10.73;7.80;;;;;;;16.57;49.28;98194.78;8516407;27;20224;-74